Sumterville, Florida
Current Conditions -  °F | °C
As of 1:53 PM on Sunday 21 Dec 2014 (Local Time) from KLEE Reporting Station
Clear Clear  
Wind Chill: 76°   Ceiling: Unl
Heat Index: 76°   Visibility: 10mi
Dew Point: 62°   Wind: 6mph
Humidity: 62%   Direction: 100°E
Pressure: 30.02"   Gusts: NA
Location:  28.75°N, 82.06°W
Report Text: KLEE 211853Z 10005KT 10SM CLR 24/17 A3002 RMK AO2 SLP166 T02440167
Loading
Personal Weather Stations






























Interactive Weather Map New forecast layout! Learn more

10-Day Weather Forecast

Advertisements
Track Severe Weather on mobile